sensor_id;sensor_type;location;lat;lon;timestamp;P1;durP1;ratioP1;P2;durP2;ratioP2
62903;SDS011;49000;50.698;13.322;2022-08-21T00:02:13;25.50;;;19.23;;
62903;SDS011;49000;50.698;13.322;2022-08-21T00:04:40;27.93;;;20.20;;
62903;SDS011;49000;50.698;13.322;2022-08-21T00:07:05;23.87;;;18.23;;
62903;SDS011;49000;50.698;13.322;2022-08-21T00:09:31;23.90;;;19.50;;
62903;SDS011;49000;50.698;13.322;2022-08-21T00:11:56;38.13;;;24.43;;
62903;SDS011;49000;50.698;13.322;2022-08-21T00:14:22;30.07;;;21.97;;
62903;SDS011;49000;50.698;13.322;2022-08-21T00:16:47;35.33;;;23.90;;
62903;SDS011;49000;50.698;13.322;2022-08-21T00:19:13;30.47;;;22.30;;
62903;SDS011;49000;50.698;13.322;2022-08-21T00:21:38;24.97;;;19.20;;
62903;SDS011;49000;50.698;13.322;2022-08-21T00:24:04;30.80;;;21.40;;
62903;SDS011;49000;50.698;13.322;2022-08-21T00:26:30;32.33;;;22.37;;
62903;SDS011;49000;50.698;13.322;2022-08-21T00:28:55;26.17;;;19.60;;
62903;SDS011;49000;50.698;13.322;2022-08-21T00:31:21;30.33;;;22.23;;
62903;SDS011;49000;50.698;13.322;2022-08-21T00:33:46;18.93;;;15.93;;
62903;SDS011;49000;50.698;13.322;2022-08-21T00:36:12;26.47;;;19.60;;
62903;SDS011;49000;50.698;13.322;2022-08-21T00:38:38;27.63;;;21.13;;
62903;SDS011;49000;50.698;13.322;2022-08-21T00:41:04;28.20;;;21.93;;
62903;SDS011;49000;50.698;13.322;2022-08-21T00:43:33;27.87;;;21.67;;
62903;SDS011;49000;50.698;13.322;2022-08-21T00:46:00;26.60;;;20.00;;
62903;SDS011;49000;50.698;13.322;2022-08-21T00:48:27;29.60;;;21.97;;
62903;SDS011;49000;50.698;13.322;2022-08-21T00:50:55;27.73;;;20.83;;
62903;SDS011;49000;50.698;13.322;2022-08-21T00:53:23;23.57;;;18.23;;
62903;SDS011;49000;50.698;13.322;2022-08-21T00:55:49;39.53;;;27.13;;
62903;SDS011;49000;50.698;13.322;2022-08-21T00:58:18;25.33;;;18.63;;
62903;SDS011;49000;50.698;13.322;2022-08-21T01:00:45;31.00;;;23.17;;
62903;SDS011;49000;50.698;13.322;2022-08-21T01:03:15;21.67;;;17.97;;
62903;SDS011;49000;50.698;13.322;2022-08-21T01:05:43;30.33;;;21.97;;
62903;SDS011;49000;50.698;13.322;2022-08-21T01:08:10;30.60;;;23.10;;
62903;SDS011;49000;50.698;13.322;2022-08-21T01:10:37;31.93;;;23.50;;
62903;SDS011;49000;50.698;13.322;2022-08-21T01:13:04;30.27;;;23.83;;
62903;SDS011;49000;50.698;13.322;2022-08-21T01:15:34;33.83;;;23.93;;
62903;SDS011;49000;50.698;13.322;2022-08-21T01:18:03;33.83;;;24.77;;
62903;SDS011;49000;50.698;13.322;2022-08-21T01:20:31;26.73;;;20.60;;
62903;SDS011;49000;50.698;13.322;2022-08-21T01:22:57;30.20;;;23.53;;
62903;SDS011;49000;50.698;13.322;2022-08-21T01:25:22;28.00;;;21.83;;
62903;SDS011;49000;50.698;13.322;2022-08-21T01:27:48;25.70;;;19.43;;
62903;SDS011;49000;50.698;13.322;2022-08-21T01:30:16;35.00;;;25.50;;
62903;SDS011;49000;50.698;13.322;2022-08-21T01:32:45;36.33;;;24.43;;
62903;SDS011;49000;50.698;13.322;2022-08-21T01:35:13;33.60;;;24.53;;
62903;SDS011;49000;50.698;13.322;2022-08-21T01:37:40;34.63;;;25.93;;
62903;SDS011;49000;50.698;13.322;2022-08-21T01:40:06;36.30;;;26.07;;
62903;SDS011;49000;50.698;13.322;2022-08-21T01:42:33;38.20;;;27.63;;
62903;SDS011;49000;50.698;13.322;2022-08-21T01:44:58;38.70;;;27.40;;
62903;SDS011;49000;50.698;13.322;2022-08-21T01:47:24;39.47;;;27.47;;
62903;SDS011;49000;50.698;13.322;2022-08-21T01:49:49;33.07;;;25.50;;
62903;SDS011;49000;50.698;13.322;2022-08-21T01:52:15;50.93;;;31.77;;
62903;SDS011;49000;50.698;13.322;2022-08-21T01:54:41;41.17;;;27.53;;
62903;SDS011;49000;50.698;13.322;2022-08-21T01:57:07;40.67;;;28.17;;
62903;SDS011;49000;50.698;13.322;2022-08-21T01:59:33;34.90;;;25.53;;
62903;SDS011;49000;50.698;13.322;2022-08-21T02:01:59;39.03;;;26.97;;
62903;SDS011;49000;50.698;13.322;2022-08-21T02:04:25;43.67;;;29.43;;
62903;SDS011;49000;50.698;13.322;2022-08-21T02:06:51;45.00;;;29.73;;
62903;SDS011;49000;50.698;13.322;2022-08-21T02:09:17;39.63;;;28.13;;
62903;SDS011;49000;50.698;13.322;2022-08-21T02:11:43;41.50;;;29.27;;
62903;SDS011;49000;50.698;13.322;2022-08-21T02:14:10;41.57;;;29.27;;
62903;SDS011;49000;50.698;13.322;2022-08-21T02:16:37;35.00;;;26.30;;
62903;SDS011;49000;50.698;13.322;2022-08-21T02:19:04;36.20;;;25.20;;
62903;SDS011;49000;50.698;13.322;2022-08-21T02:21:29;42.57;;;30.07;;
62903;SDS011;49000;50.698;13.322;2022-08-21T02:23:55;40.77;;;27.90;;
62903;SDS011;49000;50.698;13.322;2022-08-21T02:26:21;42.17;;;29.17;;
62903;SDS011;49000;50.698;13.322;2022-08-21T02:28:46;39.80;;;27.30;;
62903;SDS011;49000;50.698;13.322;2022-08-21T02:31:12;39.67;;;28.27;;
62903;SDS011;49000;50.698;13.322;2022-08-21T02:33:39;41.37;;;29.50;;
62903;SDS011;49000;50.698;13.322;2022-08-21T02:36:05;47.53;;;30.70;;
62903;SDS011;49000;50.698;13.322;2022-08-21T02:38:33;41.17;;;28.53;;
62903;SDS011;49000;50.698;13.322;2022-08-21T02:41:02;45.70;;;30.43;;
62903;SDS011;49000;50.698;13.322;2022-08-21T02:43:28;41.90;;;29.00;;
62903;SDS011;49000;50.698;13.322;2022-08-21T02:45:55;56.83;;;32.50;;
62903;SDS011;49000;50.698;13.322;2022-08-21T02:48:23;48.57;;;31.17;;
62903;SDS011;49000;50.698;13.322;2022-08-21T02:50:54;51.33;;;31.93;;
62903;SDS011;49000;50.698;13.322;2022-08-21T02:53:21;59.53;;;33.70;;
62903;SDS011;49000;50.698;13.322;2022-08-21T02:55:48;53.10;;;31.67;;
62903;SDS011;49000;50.698;13.322;2022-08-21T02:58:17;53.17;;;31.93;;
62903;SDS011;49000;50.698;13.322;2022-08-21T03:00:45;48.97;;;30.47;;
62903;SDS011;49000;50.698;13.322;2022-08-21T03:03:11;46.33;;;30.70;;
62903;SDS011;49000;50.698;13.322;2022-08-21T03:05:37;37.17;;;27.30;;
62903;SDS011;49000;50.698;13.322;2022-08-21T03:08:05;35.27;;;25.80;;
62903;SDS011;49000;50.698;13.322;2022-08-21T03:10:35;36.63;;;26.30;;
62903;SDS011;49000;50.698;13.322;2022-08-21T03:13:06;38.57;;;25.27;;
62903;SDS011;49000;50.698;13.322;2022-08-21T03:15:32;30.10;;;22.60;;
62903;SDS011;49000;50.698;13.322;2022-08-21T03:17:57;29.43;;;21.97;;
62903;SDS011;49000;50.698;13.322;2022-08-21T03:20:25;32.43;;;22.57;;
62903;SDS011;49000;50.698;13.322;2022-08-21T03:22:52;27.30;;;19.43;;
62903;SDS011;49000;50.698;13.322;2022-08-21T03:25:19;23.30;;;17.37;;
62903;SDS011;49000;50.698;13.322;2022-08-21T03:27:46;21.00;;;16.60;;
62903;SDS011;49000;50.698;13.322;2022-08-21T03:30:14;19.80;;;14.27;;
62903;SDS011;49000;50.698;13.322;2022-08-21T03:32:41;16.43;;;13.73;;
62903;SDS011;49000;50.698;13.322;2022-08-21T03:35:07;17.97;;;14.97;;
62903;SDS011;49000;50.698;13.322;2022-08-21T03:37:33;20.50;;;14.93;;
62903;SDS011;49000;50.698;13.322;2022-08-21T03:39:58;23.17;;;16.60;;
62903;SDS011;49000;50.698;13.322;2022-08-21T03:42:24;17.90;;;14.60;;
62903;SDS011;49000;50.698;13.322;2022-08-21T03:44:50;12.87;;;11.40;;
62903;SDS011;49000;50.698;13.322;2022-08-21T03:47:15;16.70;;;12.60;;
62903;SDS011;49000;50.698;13.322;2022-08-21T03:49:41;19.63;;;15.97;;
62903;SDS011;49000;50.698;13.322;2022-08-21T03:52:07;17.87;;;14.23;;
62903;SDS011;49000;50.698;13.322;2022-08-21T03:54:32;16.53;;;13.77;;
62903;SDS011;49000;50.698;13.322;2022-08-21T03:56:58;13.37;;;11.97;;
62903;SDS011;49000;50.698;13.322;2022-08-21T03:59:24;14.63;;;11.37;;
62903;SDS011;49000;50.698;13.322;2022-08-21T04:02:00;15.53;;;12.97;;
62903;SDS011;49000;50.698;13.322;2022-08-21T04:04:26;15.70;;;12.70;;
62903;SDS011;49000;50.698;13.322;2022-08-21T04:06:54;19.43;;;14.57;;
62903;SDS011;49000;50.698;13.322;2022-08-21T04:09:20;19.37;;;15.27;;
62903;SDS011;49000;50.698;13.322;2022-08-21T04:11:46;17.87;;;14.50;;
62903;SDS011;49000;50.698;13.322;2022-08-21T04:14:12;18.20;;;14.70;;
62903;SDS011;49000;50.698;13.322;2022-08-21T04:16:39;17.63;;;14.77;;
62903;SDS011;49000;50.698;13.322;2022-08-21T04:19:05;20.30;;;16.10;;
62903;SDS011;49000;50.698;13.322;2022-08-21T04:21:31;15.00;;;12.53;;
62903;SDS011;49000;50.698;13.322;2022-08-21T04:23:56;15.40;;;12.67;;
62903;SDS011;49000;50.698;13.322;2022-08-21T04:26:23;15.43;;;13.10;;
62903;SDS011;49000;50.698;13.322;2022-08-21T04:28:48;12.93;;;10.53;;
62903;SDS011;49000;50.698;13.322;2022-08-21T04:31:14;20.40;;;16.57;;
62903;SDS011;49000;50.698;13.322;2022-08-21T04:33:39;18.93;;;15.63;;
62903;SDS011;49000;50.698;13.322;2022-08-21T04:36:05;17.00;;;13.77;;
62903;SDS011;49000;50.698;13.322;2022-08-21T04:38:31;23.57;;;18.37;;
62903;SDS011;49000;50.698;13.322;2022-08-21T04:40:57;16.97;;;13.40;;
62903;SDS011;49000;50.698;13.322;2022-08-21T04:43:23;21.27;;;14.60;;
62903;SDS011;49000;50.698;13.322;2022-08-21T04:45:49;17.17;;;14.20;;
62903;SDS011;49000;50.698;13.322;2022-08-21T04:48:17;18.90;;;15.23;;
62903;SDS011;49000;50.698;13.322;2022-08-21T04:50:50;17.17;;;14.77;;
62903;SDS011;49000;50.698;13.322;2022-08-21T04:53:40;18.07;;;14.67;;
62903;SDS011;49000;50.698;13.322;2022-08-21T04:56:19;17.33;;;14.90;;
62903;SDS011;49000;50.698;13.322;2022-08-21T04:58:50;17.07;;;14.20;;
62903;SDS011;49000;50.698;13.322;2022-08-21T05:01:19;22.07;;;17.43;;
62903;SDS011;49000;50.698;13.322;2022-08-21T05:03:47;21.97;;;16.97;;
62903;SDS011;49000;50.698;13.322;2022-08-21T05:06:16;19.13;;;16.17;;
62903;SDS011;49000;50.698;13.322;2022-08-21T05:08:42;18.43;;;15.60;;
62903;SDS011;49000;50.698;13.322;2022-08-21T05:11:10;18.50;;;15.83;;
62903;SDS011;49000;50.698;13.322;2022-08-21T05:13:36;16.03;;;14.07;;
62903;SDS011;49000;50.698;13.322;2022-08-21T05:16:01;18.60;;;16.23;;
62903;SDS011;49000;50.698;13.322;2022-08-21T05:18:27;16.87;;;14.63;;
62903;SDS011;49000;50.698;13.322;2022-08-21T05:20:53;19.77;;;15.77;;
62903;SDS011;49000;50.698;13.322;2022-08-21T05:23:18;17.27;;;15.37;;
62903;SDS011;49000;50.698;13.322;2022-08-21T05:25:44;19.90;;;15.67;;
62903;SDS011;49000;50.698;13.322;2022-08-21T05:28:10;14.07;;;12.53;;
62903;SDS011;49000;50.698;13.322;2022-08-21T05:30:36;17.37;;;15.37;;
62903;SDS011;49000;50.698;13.322;2022-08-21T05:33:03;20.23;;;16.20;;
62903;SDS011;49000;50.698;13.322;2022-08-21T05:35:30;22.30;;;18.93;;
62903;SDS011;49000;50.698;13.322;2022-08-21T05:37:57;18.13;;;16.13;;
62903;SDS011;49000;50.698;13.322;2022-08-21T05:40:23;16.83;;;14.27;;
62903;SDS011;49000;50.698;13.322;2022-08-21T05:42:50;14.70;;;13.13;;
62903;SDS011;49000;50.698;13.322;2022-08-21T05:45:16;14.87;;;13.27;;
62903;SDS011;49000;50.698;13.322;2022-08-21T05:47:41;19.70;;;16.13;;
62903;SDS011;49000;50.698;13.322;2022-08-21T05:50:08;17.37;;;14.93;;
62903;SDS011;49000;50.698;13.322;2022-08-21T05:52:33;19.80;;;14.80;;
62903;SDS011;49000;50.698;13.322;2022-08-21T05:54:59;16.43;;;12.97;;
62903;SDS011;49000;50.698;13.322;2022-08-21T05:57:24;19.93;;;16.37;;
62903;SDS011;49000;50.698;13.322;2022-08-21T05:59:50;15.20;;;13.60;;
62903;SDS011;49000;50.698;13.322;2022-08-21T06:02:17;16.13;;;13.37;;
62903;SDS011;49000;50.698;13.322;2022-08-21T06:04:43;17.53;;;14.43;;
62903;SDS011;49000;50.698;13.322;2022-08-21T06:07:09;15.57;;;13.53;;
62903;SDS011;49000;50.698;13.322;2022-08-21T06:09:34;17.33;;;14.07;;
62903;SDS011;49000;50.698;13.322;2022-08-21T06:12:05;17.83;;;14.73;;
62903;SDS011;49000;50.698;13.322;2022-08-21T06:14:35;20.97;;;15.17;;
62903;SDS011;49000;50.698;13.322;2022-08-21T06:17:05;20.83;;;16.33;;
62903;SDS011;49000;50.698;13.322;2022-08-21T06:19:32;17.50;;;14.90;;
62903;SDS011;49000;50.698;13.322;2022-08-21T06:21:58;19.23;;;14.97;;
62903;SDS011;49000;50.698;13.322;2022-08-21T06:24:23;17.07;;;14.40;;
62903;SDS011;49000;50.698;13.322;2022-08-21T06:26:49;20.77;;;16.73;;
62903;SDS011;49000;50.698;13.322;2022-08-21T06:29:15;19.43;;;15.73;;
62903;SDS011;49000;50.698;13.322;2022-08-21T06:31:42;19.83;;;16.20;;
62903;SDS011;49000;50.698;13.322;2022-08-21T06:34:08;15.67;;;13.63;;
62903;SDS011;49000;50.698;13.322;2022-08-21T06:36:34;19.57;;;15.53;;
62903;SDS011;49000;50.698;13.322;2022-08-21T06:39:00;17.17;;;14.60;;
62903;SDS011;49000;50.698;13.322;2022-08-21T06:41:26;18.00;;;14.77;;
62903;SDS011;49000;50.698;13.322;2022-08-21T06:43:52;15.80;;;13.73;;
62903;SDS011;49000;50.698;13.322;2022-08-21T06:46:18;13.93;;;12.30;;
62903;SDS011;49000;50.698;13.322;2022-08-21T06:48:44;14.93;;;12.63;;
62903;SDS011;49000;50.698;13.322;2022-08-21T06:51:09;15.93;;;13.70;;
62903;SDS011;49000;50.698;13.322;2022-08-21T06:53:35;16.13;;;14.07;;
62903;SDS011;49000;50.698;13.322;2022-08-21T06:56:00;17.93;;;15.37;;
62903;SDS011;49000;50.698;13.322;2022-08-21T06:58:26;19.23;;;14.60;;
62903;SDS011;49000;50.698;13.322;2022-08-21T07:00:51;15.07;;;12.87;;
62903;SDS011;49000;50.698;13.322;2022-08-21T07:03:23;16.33;;;13.73;;
62903;SDS011;49000;50.698;13.322;2022-08-21T07:05:52;16.20;;;13.30;;
62903;SDS011;49000;50.698;13.322;2022-08-21T07:08:18;19.33;;;14.70;;
62903;SDS011;49000;50.698;13.322;2022-08-21T07:10:45;15.07;;;13.43;;
62903;SDS011;49000;50.698;13.322;2022-08-21T07:13:12;16.87;;;14.67;;
62903;SDS011;49000;50.698;13.322;2022-08-21T07:15:38;14.17;;;12.67;;
62903;SDS011;49000;50.698;13.322;2022-08-21T07:18:03;16.43;;;13.30;;
62903;SDS011;49000;50.698;13.322;2022-08-21T07:20:29;13.47;;;11.90;;
62903;SDS011;49000;50.698;13.322;2022-08-21T07:23:00;18.37;;;12.60;;
62903;SDS011;49000;50.698;13.322;2022-08-21T07:25:30;17.63;;;13.87;;
62903;SDS011;49000;50.698;13.322;2022-08-21T07:27:56;20.43;;;16.33;;
62903;SDS011;49000;50.698;13.322;2022-08-21T07:30:22;19.57;;;16.60;;
62903;SDS011;49000;50.698;13.322;2022-08-21T07:32:48;15.57;;;13.63;;
62903;SDS011;49000;50.698;13.322;2022-08-21T07:35:15;18.50;;;14.40;;
62903;SDS011;49000;50.698;13.322;2022-08-21T07:37:42;18.00;;;14.13;;
62903;SDS011;49000;50.698;13.322;2022-08-21T07:40:07;15.90;;;13.30;;
62903;SDS011;49000;50.698;13.322;2022-08-21T07:42:33;23.20;;;15.20;;
62903;SDS011;49000;50.698;13.322;2022-08-21T07:44:59;15.80;;;13.57;;
62903;SDS011;49000;50.698;13.322;2022-08-21T07:47:24;16.23;;;11.67;;
62903;SDS011;49000;50.698;13.322;2022-08-21T07:49:50;14.43;;;11.47;;
62903;SDS011;49000;50.698;13.322;2022-08-21T07:52:15;16.07;;;12.23;;
62903;SDS011;49000;50.698;13.322;2022-08-21T07:54:41;15.77;;;11.30;;
62903;SDS011;49000;50.698;13.322;2022-08-21T07:57:06;14.60;;;12.33;;
62903;SDS011;49000;50.698;13.322;2022-08-21T07:59:32;11.60;;;9.77;;
62903;SDS011;49000;50.698;13.322;2022-08-21T08:01:57;18.30;;;13.10;;
62903;SDS011;49000;50.698;13.322;2022-08-21T08:04:23;16.97;;;12.37;;
62903;SDS011;49000;50.698;13.322;2022-08-21T08:06:48;14.53;;;12.87;;
62903;SDS011;49000;50.698;13.322;2022-08-21T08:09:14;16.87;;;12.57;;
62903;SDS011;49000;50.698;13.322;2022-08-21T08:11:40;16.77;;;11.07;;
62903;SDS011;49000;50.698;13.322;2022-08-21T08:14:08;15.73;;;11.87;;
62903;SDS011;49000;50.698;13.322;2022-08-21T08:16:34;15.43;;;12.07;;
62903;SDS011;49000;50.698;13.322;2022-08-21T08:19:00;16.13;;;12.80;;
62903;SDS011;49000;50.698;13.322;2022-08-21T08:21:25;14.87;;;12.80;;
62903;SDS011;49000;50.698;13.322;2022-08-21T08:23:51;14.40;;;11.87;;
62903;SDS011;49000;50.698;13.322;2022-08-21T08:26:17;14.73;;;11.83;;
62903;SDS011;49000;50.698;13.322;2022-08-21T08:28:42;14.40;;;11.47;;
62903;SDS011;49000;50.698;13.322;2022-08-21T08:31:08;18.57;;;12.90;;
62903;SDS011;49000;50.698;13.322;2022-08-21T08:33:34;14.43;;;12.20;;
62903;SDS011;49000;50.698;13.322;2022-08-21T08:35:59;17.33;;;13.30;;
62903;SDS011;49000;50.698;13.322;2022-08-21T08:38:25;16.23;;;13.70;;
62903;SDS011;49000;50.698;13.322;2022-08-21T08:43:40;15.87;;;13.17;;
62903;SDS011;49000;50.698;13.322;2022-08-21T08:46:12;18.57;;;13.30;;
62903;SDS011;49000;50.698;13.322;2022-08-21T08:49:24;12.97;;;11.00;;
62903;SDS011;49000;50.698;13.322;2022-08-21T08:51:52;14.67;;;11.70;;
62903;SDS011;49000;50.698;13.322;2022-08-21T08:54:32;14.37;;;10.43;;
62903;SDS011;49000;50.698;13.322;2022-08-21T08:57:03;13.43;;;10.90;;
62903;SDS011;49000;50.698;13.322;2022-08-21T08:59:39;12.77;;;10.47;;
62903;SDS011;49000;50.698;13.322;2022-08-21T09:02:06;16.60;;;13.50;;
62903;SDS011;49000;50.698;13.322;2022-08-21T09:04:38;14.17;;;11.50;;
62903;SDS011;49000;50.698;13.322;2022-08-21T09:18:54;11.07;;;9.57;;
62903;SDS011;49000;50.698;13.322;2022-08-21T09:26:37;9.97;;;8.57;;
62903;SDS011;49000;50.698;13.322;2022-08-21T09:29:13;9.17;;;8.27;;
62903;SDS011;49000;50.698;13.322;2022-08-21T09:31:45;12.00;;;8.67;;
62903;SDS011;49000;50.698;13.322;2022-08-21T09:34:11;11.73;;;8.40;;
62903;SDS011;49000;50.698;13.322;2022-08-21T09:36:40;13.10;;;7.90;;
62903;SDS011;49000;50.698;13.322;2022-08-21T09:39:08;7.93;;;6.97;;
62903;SDS011;49000;50.698;13.322;2022-08-21T09:41:35;10.35;;;6.88;;
62903;SDS011;49000;50.698;13.322;2022-08-21T09:44:03;10.10;;;6.88;;
62903;SDS011;49000;50.698;13.322;2022-08-21T09:46:30;8.75;;;6.38;;
62903;SDS011;49000;50.698;13.322;2022-08-21T09:48:58;6.57;;;5.43;;
62903;SDS011;49000;50.698;13.322;2022-08-21T09:51:27;10.48;;;6.78;;
62903;SDS011;49000;50.698;13.322;2022-08-21T09:56:31;10.63;;;7.60;;
62903;SDS011;49000;50.698;13.322;2022-08-21T10:01:51;10.50;;;7.75;;
62903;SDS011;49000;50.698;13.322;2022-08-21T10:04:27;9.20;;;7.25;;
62903;SDS011;49000;50.698;13.322;2022-08-21T10:06:54;10.80;;;7.95;;
62903;SDS011;49000;50.698;13.322;2022-08-21T10:09:35;9.57;;;8.05;;
62903;SDS011;49000;50.698;13.322;2022-08-21T10:14:40;7.65;;;6.95;;
62903;SDS011;49000;50.698;13.322;2022-08-21T10:17:18;8.80;;;7.13;;
62903;SDS011;49000;50.698;13.322;2022-08-21T10:20:08;8.63;;;6.30;;
62903;SDS011;49000;50.698;13.322;2022-08-21T10:25:31;8.77;;;4.30;;
62903;SDS011;49000;50.698;13.322;2022-08-21T10:28:17;6.47;;;4.30;;
62903;SDS011;49000;50.698;13.322;2022-08-21T10:30:56;6.82;;;3.92;;
62903;SDS011;49000;50.698;13.322;2022-08-21T10:33:33;7.07;;;3.78;;
62903;SDS011;49000;50.698;13.322;2022-08-21T10:36:06;6.20;;;3.65;;
62903;SDS011;49000;50.698;13.322;2022-08-21T10:43:52;8.68;;;3.75;;
62903;SDS011;49000;50.698;13.322;2022-08-21T10:46:50;4.72;;;3.30;;
62903;SDS011;49000;50.698;13.322;2022-08-21T10:49:39;5.93;;;3.88;;
62903;SDS011;49000;50.698;13.322;2022-08-21T10:53:22;6.15;;;3.00;;
62903;SDS011;49000;50.698;13.322;2022-08-21T10:55:25;6.40;;;3.40;;
62903;SDS011;49000;50.698;13.322;2022-08-21T10:57:58;6.40;;;3.60;;
62903;SDS011;49000;50.698;13.322;2022-08-21T11:00:46;8.80;;;3.28;;
62903;SDS011;49000;50.698;13.322;2022-08-21T11:03:33;9.07;;;3.10;;
62903;SDS011;49000;50.698;13.322;2022-08-21T11:08:53;4.20;;;2.70;;
62903;SDS011;49000;50.698;13.322;2022-08-21T11:11:29;4.95;;;2.60;;
62903;SDS011;49000;50.698;13.322;2022-08-21T11:16:42;6.13;;;2.80;;
62903;SDS011;49000;50.698;13.322;2022-08-21T11:19:19;4.57;;;2.63;;
62903;SDS011;49000;50.698;13.322;2022-08-21T11:24:54;5.70;;;3.00;;
62903;SDS011;49000;50.698;13.322;2022-08-21T11:27:56;4.55;;;2.80;;
62903;SDS011;49000;50.698;13.322;2022-08-21T11:30:29;3.97;;;2.58;;
62903;SDS011;49000;50.698;13.322;2022-08-21T11:33:18;4.80;;;2.63;;
62903;SDS011;49000;50.698;13.322;2022-08-21T11:36:13;5.10;;;2.35;;
62903;SDS011;49000;50.698;13.322;2022-08-21T11:39:02;4.78;;;3.08;;
62903;SDS011;49000;50.698;13.322;2022-08-21T11:41:43;4.82;;;2.13;;
62903;SDS011;49000;50.698;13.322;2022-08-21T11:52:43;3.35;;;2.03;;
62903;SDS011;49000;50.698;13.322;2022-08-21T11:55:14;6.50;;;2.30;;
62903;SDS011;49000;50.698;13.322;2022-08-21T12:00:25;4.15;;;2.08;;
62903;SDS011;49000;50.698;13.322;2022-08-21T12:02:54;3.55;;;1.98;;
62903;SDS011;49000;50.698;13.322;2022-08-21T12:05:25;7.60;;;2.58;;
62903;SDS011;49000;50.698;13.322;2022-08-21T12:10:38;6.18;;;2.00;;
62903;SDS011;49000;50.698;13.322;2022-08-21T12:13:07;6.13;;;1.92;;
62903;SDS011;49000;50.698;13.322;2022-08-21T12:15:36;4.38;;;2.05;;
62903;SDS011;49000;50.698;13.322;2022-08-21T12:18:03;2.90;;;1.88;;
62903;SDS011;49000;50.698;13.322;2022-08-21T12:28:40;5.80;;;2.63;;
62903;SDS011;49000;50.698;13.322;2022-08-21T12:31:17;3.03;;;2.10;;
62903;SDS011;49000;50.698;13.322;2022-08-21T12:33:52;3.42;;;1.80;;
62903;SDS011;49000;50.698;13.322;2022-08-21T12:36:24;4.60;;;2.40;;
62903;SDS011;49000;50.698;13.322;2022-08-21T12:38:56;4.70;;;2.10;;
62903;SDS011;49000;50.698;13.322;2022-08-21T12:41:37;5.47;;;2.08;;
62903;SDS011;49000;50.698;13.322;2022-08-21T12:44:17;7.20;;;2.58;;
62903;SDS011;49000;50.698;13.322;2022-08-21T12:47:03;2.72;;;2.13;;
62903;SDS011;49000;50.698;13.322;2022-08-21T12:52:09;4.18;;;2.00;;
62903;SDS011;49000;50.698;13.322;2022-08-21T12:54:42;3.92;;;2.13;;
62903;SDS011;49000;50.698;13.322;2022-08-21T12:57:17;5.00;;;2.00;;
62903;SDS011;49000;50.698;13.322;2022-08-21T12:59:44;4.35;;;2.35;;
62903;SDS011;49000;50.698;13.322;2022-08-21T13:02:18;7.18;;;2.60;;
62903;SDS011;49000;50.698;13.322;2022-08-21T13:04:58;6.22;;;2.25;;
62903;SDS011;49000;50.698;13.322;2022-08-21T13:07:29;6.45;;;2.72;;
62903;SDS011;49000;50.698;13.322;2022-08-21T13:10:03;4.65;;;2.17;;
62903;SDS011;49000;50.698;13.322;2022-08-21T13:12:32;3.95;;;2.05;;
62903;SDS011;49000;50.698;13.322;2022-08-21T13:15:01;4.38;;;1.95;;
62903;SDS011;49000;50.698;13.322;2022-08-21T13:17:31;4.53;;;1.90;;
62903;SDS011;49000;50.698;13.322;2022-08-21T13:20:03;4.50;;;2.30;;
62903;SDS011;49000;50.698;13.322;2022-08-21T13:22:40;3.97;;;1.83;;
62903;SDS011;49000;50.698;13.322;2022-08-21T13:25:14;4.13;;;1.90;;
62903;SDS011;49000;50.698;13.322;2022-08-21T13:27:42;8.65;;;2.28;;
62903;SDS011;49000;50.698;13.322;2022-08-21T13:30:11;4.32;;;1.85;;
62903;SDS011;49000;50.698;13.322;2022-08-21T13:32:42;5.05;;;2.40;;
62903;SDS011;49000;50.698;13.322;2022-08-21T13:35:11;5.97;;;2.30;;
62903;SDS011;49000;50.698;13.322;2022-08-21T13:37:41;3.22;;;1.83;;
62903;SDS011;49000;50.698;13.322;2022-08-21T13:40:12;3.55;;;1.80;;
62903;SDS011;49000;50.698;13.322;2022-08-21T13:42:43;3.85;;;2.00;;
62903;SDS011;49000;50.698;13.322;2022-08-21T13:45:14;8.27;;;2.33;;
62903;SDS011;49000;50.698;13.322;2022-08-21T13:47:41;7.32;;;2.10;;
62903;SDS011;49000;50.698;13.322;2022-08-21T13:50:11;4.07;;;1.80;;
62903;SDS011;49000;50.698;13.322;2022-08-21T13:52:44;6.45;;;1.95;;
62903;SDS011;49000;50.698;13.322;2022-08-21T13:55:15;4.47;;;2.00;;
62903;SDS011;49000;50.698;13.322;2022-08-21T13:57:41;4.75;;;1.70;;
62903;SDS011;49000;50.698;13.322;2022-08-21T14:00:10;3.28;;;1.92;;
62903;SDS011;49000;50.698;13.322;2022-08-21T14:02:39;3.90;;;1.67;;
62903;SDS011;49000;50.698;13.322;2022-08-21T14:05:07;5.10;;;1.90;;
62903;SDS011;49000;50.698;13.322;2022-08-21T14:07:44;4.70;;;1.80;;
62903;SDS011;49000;50.698;13.322;2022-08-21T14:10:20;6.95;;;2.03;;
62903;SDS011;49000;50.698;13.322;2022-08-21T14:12:51;7.05;;;1.88;;
62903;SDS011;49000;50.698;13.322;2022-08-21T14:15:24;5.80;;;2.33;;
62903;SDS011;49000;50.698;13.322;2022-08-21T14:17:53;4.38;;;1.50;;
62903;SDS011;49000;50.698;13.322;2022-08-21T14:20:29;2.95;;;1.40;;
62903;SDS011;49000;50.698;13.322;2022-08-21T14:22:58;3.65;;;1.60;;
62903;SDS011;49000;50.698;13.322;2022-08-21T14:27:58;5.22;;;2.20;;
62903;SDS011;49000;50.698;13.322;2022-08-21T14:30:43;3.55;;;1.75;;
62903;SDS011;49000;50.698;13.322;2022-08-21T14:33:10;5.88;;;2.20;;
62903;SDS011;49000;50.698;13.322;2022-08-21T14:35:37;3.30;;;1.80;;
62903;SDS011;49000;50.698;13.322;2022-08-21T14:38:11;3.40;;;1.52;;
62903;SDS011;49000;50.698;13.322;2022-08-21T14:40:38;5.88;;;1.70;;
62903;SDS011;49000;50.698;13.322;2022-08-21T14:43:04;4.68;;;1.80;;
62903;SDS011;49000;50.698;13.322;2022-08-21T14:45:29;4.13;;;1.75;;
62903;SDS011;49000;50.698;13.322;2022-08-21T14:47:56;3.83;;;1.85;;
62903;SDS011;49000;50.698;13.322;2022-08-21T14:50:23;7.00;;;2.00;;
62903;SDS011;49000;50.698;13.322;2022-08-21T14:52:48;4.82;;;2.15;;
62903;SDS011;49000;50.698;13.322;2022-08-21T14:55:15;2.88;;;2.00;;
62903;SDS011;49000;50.698;13.322;2022-08-21T14:57:42;5.72;;;2.05;;
62903;SDS011;49000;50.698;13.322;2022-08-21T15:00:11;4.55;;;1.85;;
62903;SDS011;49000;50.698;13.322;2022-08-21T15:02:38;3.80;;;1.80;;
62903;SDS011;49000;50.698;13.322;2022-08-21T15:05:04;4.70;;;2.03;;
62903;SDS011;49000;50.698;13.322;2022-08-21T15:07:30;6.07;;;2.15;;
62903;SDS011;49000;50.698;13.322;2022-08-21T15:09:55;4.75;;;2.00;;
62903;SDS011;49000;50.698;13.322;2022-08-21T15:12:21;4.05;;;1.98;;
62903;SDS011;49000;50.698;13.322;2022-08-21T15:14:47;3.80;;;1.85;;
62903;SDS011;49000;50.698;13.322;2022-08-21T15:17:13;5.57;;;1.80;;
62903;SDS011;49000;50.698;13.322;2022-08-21T15:19:39;4.45;;;2.10;;
62903;SDS011;49000;50.698;13.322;2022-08-21T15:22:04;5.80;;;2.10;;
62903;SDS011;49000;50.698;13.322;2022-08-21T15:24:30;5.68;;;2.20;;
62903;SDS011;49000;50.698;13.322;2022-08-21T15:26:56;6.70;;;2.25;;
62903;SDS011;49000;50.698;13.322;2022-08-21T15:29:23;3.50;;;1.83;;
62903;SDS011;49000;50.698;13.322;2022-08-21T15:31:51;4.10;;;2.42;;
62903;SDS011;49000;50.698;13.322;2022-08-21T15:34:21;6.38;;;1.83;;
62903;SDS011;49000;50.698;13.322;2022-08-21T15:36:47;5.63;;;1.80;;
62903;SDS011;49000;50.698;13.322;2022-08-21T15:39:12;5.45;;;1.92;;
62903;SDS011;49000;50.698;13.322;2022-08-21T15:41:38;4.50;;;1.85;;